La Grange, Missouri
Current Conditions -  °F | °C
As of 12:54 PM on Friday 24 Oct 2014 (Local Time) from KUIN Reporting Station
Haze Haze  
Wind Chill: 57°   Ceiling: 300
Heat Index: 57°   Visibility: 4mi
Dew Point: 56°   Wind: 10mph
Humidity: 96%   Direction: 210°SSW
Pressure: 30.07"   Gusts: NA
Location:  40.04°N, 91.5°W
Report Text: KUIN 241754Z AUTO 21009KT 4SM BR OVC003 14/13 A3007 RMK AO2 SLP181 T01390133 10144 20122 58008
Loading
Personal Weather Stations






























Interactive Weather Map
Tropical Storm Tracking
New forecast layout! Learn more

10-Day Weather Forecast

Advertisements
Track Severe Weather on mobile